createdAt,value
2018-08-28T00:00:06.888Z,94962.39
2018-08-28T00:02:33.224Z,94962.75
2018-08-28T00:04:59.556Z,94956.52
2018-08-28T00:07:25.911Z,94954.73
2018-08-28T00:09:52.254Z,94953.50
2018-08-28T00:12:18.748Z,94957.53
2018-08-28T00:14:45.122Z,94959.48
2018-08-28T00:17:11.528Z,94960.44
2018-08-28T00:19:37.797Z,94966.64
2018-08-28T00:22:04.200Z,94955.37
2018-08-28T00:24:30.638Z,94962.09
2018-08-28T00:26:56.975Z,94954.69
2018-08-28T00:29:23.328Z,94960.55
2018-08-28T00:31:49.790Z,94962.86
2018-08-28T00:34:16.166Z,94956.98
2018-08-28T00:36:42.513Z,94960.14
2018-08-28T00:39:08.848Z,94964.14
2018-08-28T00:41:35.187Z,94961.33
2018-08-28T00:44:01.584Z,94970.92
2018-08-28T00:46:27.934Z,94968.45
2018-08-28T00:48:54.267Z,94964.36
2018-08-28T00:51:20.681Z,94954.87
2018-08-28T00:53:47.038Z,94955.86
2018-08-28T00:56:13.414Z,94960.11
2018-08-28T00:58:39.745Z,94960.93
2018-08-28T01:01:06.111Z,94964.14
2018-08-28T01:03:32.441Z,94967.10
2018-08-28T01:05:58.775Z,94968.58
2018-08-28T01:08:25.103Z,94970.37
2018-08-28T01:10:51.448Z,94974.38
2018-08-28T01:13:17.807Z,94982.12
2018-08-28T01:15:44.136Z,94982.06
2018-08-28T01:18:10.484Z,94977.66
2018-08-28T01:20:36.867Z,94982.48
2018-08-28T01:23:03.234Z,94978.50
2018-08-28T01:25:29.625Z,94978.57
2018-08-28T01:27:55.960Z,94977.97
2018-08-28T01:30:22.380Z,94978.80
2018-08-28T01:32:48.759Z,94981.92
2018-08-28T01:35:15.087Z,94987.36
2018-08-28T01:37:41.486Z,94989.59
2018-08-28T01:40:07.858Z,94980.67
2018-08-28T01:42:34.269Z,94985.47
2018-08-28T01:45:00.599Z,94985.43
2018-08-28T01:47:26.945Z,94984.09
2018-08-28T01:49:53.321Z,94977.57
2018-08-28T01:52:19.673Z,94975.54
2018-08-28T01:54:46.055Z,94977.05
2018-08-28T01:57:12.391Z,94978.53
2018-08-28T01:59:38.872Z,94975.48
2018-08-28T02:02:05.257Z,94970.08
2018-08-28T02:04:31.632Z,94968.29
2018-08-28T02:06:58.029Z,94966.63
2018-08-28T02:09:24.358Z,94970.08
2018-08-28T02:11:50.698Z,94978.53
2018-08-28T02:14:17.033Z,94981.92
2018-08-28T02:16:43.414Z,94981.10
2018-08-28T02:19:09.755Z,94975.19
2018-08-28T02:21:36.148Z,94976.69
2018-08-28T02:24:02.516Z,94976.18
2018-08-28T02:26:28.887Z,94970.68
2018-08-28T02:28:55.263Z,94970.50
2018-08-28T02:31:21.646Z,94966.12
2018-08-28T02:33:48.021Z,94962.55
2018-08-28T02:36:14.357Z,94964.84
2018-08-28T02:38:40.675Z,94967.83
2018-08-28T02:41:07.077Z,94971.33
2018-08-28T02:43:33.428Z,94973.85
2018-08-28T02:45:59.758Z,94977.18
2018-08-28T02:48:26.125Z,94975.48
2018-08-28T02:50:52.463Z,94984.21
2018-08-28T02:53:18.891Z,94989.19
2018-08-28T02:55:45.249Z,94991.06
2018-08-28T02:58:11.635Z,94998.66
2018-08-28T03:00:37.958Z,95000.17
2018-08-28T03:03:04.342Z,94998.76
2018-08-28T03:05:30.685Z,94999.41
2018-08-28T03:07:57.013Z,94995.02
2018-08-28T03:10:23.404Z,95000.58
2018-08-28T03:12:49.725Z,95007.25
2018-08-28T03:15:16.050Z,95008.48
2018-08-28T03:17:42.396Z,95018.78
2018-08-28T03:20:08.770Z,95020.30
2018-08-28T03:22:35.099Z,95026.11
2018-08-28T03:25:01.465Z,95026.98
2018-08-28T03:27:27.809Z,95033.88
2018-08-28T03:29:54.239Z,95033.41
2018-08-28T03:32:20.640Z,95039.03
2018-08-28T03:34:46.997Z,95041.78
2018-08-28T03:37:13.367Z,95039.62
2018-08-28T03:39:39.757Z,95048.22
2018-08-28T03:42:06.084Z,95046.64
2018-08-28T03:44:32.495Z,95046.63
2018-08-28T03:46:58.913Z,95045.36
2018-08-28T03:49:25.248Z,95045.02
2018-08-28T03:51:51.581Z,95038.03
2018-08-28T03:54:17.904Z,95046.54
2018-08-28T03:56:44.272Z,95044.47
2018-08-28T03:59:10.594Z,95045.47
2018-08-28T04:01:36.960Z,95044.78
2018-08-28T04:04:03.295Z,95047.51
2018-08-28T04:06:29.667Z,95056.95
2018-08-28T04:08:55.995Z,95052.84
2018-08-28T04:11:22.427Z,95055.77
2018-08-28T04:13:48.859Z,95051.34
2018-08-28T04:16:15.223Z,95055.20
2018-08-28T04:18:41.553Z,95055.27
2018-08-28T04:21:08.082Z,95059.59
2018-08-28T04:23:34.399Z,95054.09
2018-08-28T04:26:00.764Z,95059.77
2018-08-28T04:28:27.096Z,95053.51
2018-08-28T04:30:53.465Z,95055.48
2018-08-28T04:33:19.807Z,95054.32
2018-08-28T04:35:46.152Z,95064.45
2018-08-28T04:38:12.504Z,95058.65
2018-08-28T04:40:38.863Z,95062.75
2018-08-28T04:43:05.240Z,95049.88
2018-08-28T04:45:31.566Z,95063.40
2018-08-28T04:47:57.931Z,95055.44
2018-08-28T04:50:24.294Z,95054.78
2018-08-28T04:52:50.628Z,95057.66
2018-08-28T04:55:17.087Z,95052.66
2018-08-28T04:57:43.518Z,95053.67
2018-08-28T05:00:09.916Z,95048.38
2018-08-28T05:02:36.384Z,95049.75
2018-08-28T05:05:02.761Z,95057.95
2018-08-28T05:07:29.135Z,95058.58
2018-08-28T05:09:55.495Z,95057.30
2018-08-28T05:12:21.891Z,95056.76
2018-08-28T05:14:48.288Z,95064.56
2018-08-28T05:17:14.686Z,95070.37
2018-08-28T05:19:41.060Z,95069.06
2018-08-28T05:22:07.489Z,95079.61
2018-08-28T05:24:33.818Z,95066.72
2018-08-28T05:27:00.216Z,95066.52
2018-08-28T05:29:26.625Z,95065.32
2018-08-28T05:31:53.014Z,95059.27
2018-08-28T05:34:19.345Z,95057.33
2018-08-28T05:36:45.743Z,95059.65
2018-08-28T05:39:12.099Z,95062.34
2018-08-28T05:41:38.488Z,95066.35
2018-08-28T05:44:04.835Z,95063.36
2018-08-28T05:46:31.167Z,95065.06
2018-08-28T05:48:57.636Z,95068.02
2018-08-28T05:51:23.962Z,95068.27
2018-08-28T05:53:50.306Z,95069.96
2018-08-28T05:56:16.776Z,95070.48
2018-08-28T05:58:43.159Z,95066.50
2018-08-28T06:01:09.650Z,95069.98
2018-08-28T06:03:36.171Z,95078.52
2018-08-28T06:06:02.560Z,95081.20
2018-08-28T06:08:29.118Z,95083.59
2018-08-28T06:10:55.497Z,95082.88
2018-08-28T06:13:21.958Z,95084.95
2018-08-28T06:15:48.435Z,95083.00
2018-08-28T06:18:14.854Z,95088.16
2018-08-28T06:20:41.203Z,95089.81
2018-08-28T06:23:07.786Z,95093.45
2018-08-28T06:25:34.159Z,95096.48
2018-08-28T06:28:00.569Z,95095.55
2018-08-28T06:30:26.991Z,95096.00
2018-08-28T06:32:53.355Z,95100.05
2018-08-28T06:35:19.787Z,95097.89
2018-08-28T06:37:46.118Z,95101.47
2018-08-28T06:40:12.513Z,95108.02
2018-08-28T06:42:38.880Z,95109.47
2018-08-28T06:45:05.321Z,95112.62
2018-08-28T06:47:31.815Z,95112.14
2018-08-28T06:49:58.226Z,95110.61
2018-08-28T06:52:24.573Z,95118.98
2018-08-28T06:54:50.923Z,95123.42
2018-08-28T06:57:17.348Z,95115.30
2018-08-28T06:59:43.822Z,95124.55
2018-08-28T07:02:10.259Z,95121.97
2018-08-28T07:04:36.687Z,95122.14
2018-08-28T07:07:03.124Z,95119.73
2018-08-28T07:09:29.531Z,95120.96
2018-08-28T07:11:55.869Z,95130.21
2018-08-28T07:14:22.239Z,95132.08
2018-08-28T07:16:48.566Z,95132.80
2018-08-28T07:19:14.949Z,95137.73
2018-08-28T07:21:41.330Z,95137.85
2018-08-28T07:24:07.662Z,95134.50
2018-08-28T07:26:34.054Z,95139.88
2018-08-28T07:29:00.397Z,95141.78
2018-08-28T07:31:26.869Z,95138.76
2018-08-28T07:33:53.165Z,95145.02
2018-08-28T07:36:19.592Z,95144.14
2018-08-28T07:38:45.999Z,95142.36
2018-08-28T07:41:12.988Z,95148.02
2018-08-28T07:43:39.519Z,95152.30
2018-08-28T07:46:05.900Z,95154.55
2018-08-28T07:48:32.378Z,95158.48
2018-08-28T07:50:58.721Z,95157.35
2018-08-28T07:53:25.128Z,95154.41
2018-08-28T07:55:51.473Z,95153.92
2018-08-28T07:58:17.904Z,95159.25
2018-08-28T08:00:44.273Z,95163.97
2018-08-28T08:03:10.632Z,95164.82
2018-08-28T08:05:37.061Z,95166.14
2018-08-28T08:08:03.416Z,95161.34
2018-08-28T08:10:29.860Z,95158.86
2018-08-28T08:12:56.360Z,95161.09
2018-08-28T08:15:22.782Z,95162.30
2018-08-28T08:17:49.208Z,95162.80
2018-08-28T08:20:15.720Z,95165.23
2018-08-28T08:22:42.085Z,95161.53
2018-08-28T08:25:08.554Z,95155.53
2018-08-28T08:27:34.979Z,95167.16
2018-08-28T08:30:01.328Z,95164.44
2018-08-28T08:32:27.718Z,95162.55
2018-08-28T08:34:54.072Z,95157.55
2018-08-28T08:37:20.516Z,95159.41
2018-08-28T08:39:46.933Z,95154.33
2018-08-28T08:42:13.383Z,95157.95
2018-08-28T08:44:39.762Z,95150.67
2018-08-28T08:47:06.128Z,95157.34
2018-08-28T08:49:32.459Z,95156.88
2018-08-28T08:51:58.795Z,95156.80
2018-08-28T08:54:25.213Z,95152.09
2018-08-28T08:56:51.661Z,95154.73
2018-08-28T08:59:18.072Z,95153.28
2018-08-28T09:01:44.456Z,95153.14
2018-08-28T09:04:10.931Z,95146.98
2018-08-28T09:06:37.274Z,95147.61
2018-08-28T09:09:03.649Z,95150.61
2018-08-28T09:11:30.013Z,95156.67
2018-08-28T09:13:56.371Z,95152.02
2018-08-28T09:16:22.772Z,95150.22
2018-08-28T09:18:49.101Z,95139.77
2018-08-28T09:21:15.491Z,95142.05
2018-08-28T09:23:41.857Z,95144.58
2018-08-28T09:26:08.192Z,95146.63
2018-08-28T09:28:34.556Z,95148.44
2018-08-28T09:31:01.008Z,95150.27
2018-08-28T09:33:27.364Z,95149.80
2018-08-28T09:35:53.763Z,95142.52
2018-08-28T09:38:20.104Z,95146.50
2018-08-28T09:40:46.439Z,95144.89
2018-08-28T09:43:12.761Z,95142.09
2018-08-28T09:45:39.176Z,95143.55
2018-08-28T09:48:05.621Z,95147.28
2018-08-28T09:50:31.967Z,95146.50
2018-08-28T09:52:58.353Z,95150.74
2018-08-28T09:55:24.686Z,95146.61
2018-08-28T09:57:51.043Z,95150.95
2018-08-28T10:00:17.368Z,95146.61
2018-08-28T10:02:43.755Z,95148.00
2018-08-28T10:05:10.095Z,95137.96
2018-08-28T10:07:36.474Z,95143.92
2018-08-28T10:10:02.865Z,95145.61
2018-08-28T10:12:29.228Z,95151.26
2018-08-28T10:14:55.559Z,95150.53
2018-08-28T10:17:21.963Z,95148.30
2018-08-28T10:19:48.268Z,95150.57
2018-08-28T10:22:14.649Z,95146.75
2018-08-28T10:24:41.088Z,95139.20
2018-08-28T10:27:07.489Z,95131.07
2018-08-28T10:29:33.843Z,95136.75
2018-08-28T10:32:00.244Z,95133.09
2018-08-28T10:34:26.589Z,95135.92
2018-08-28T10:36:53.674Z,95142.83
2018-08-28T10:39:20.045Z,95135.19
2018-08-28T10:41:46.526Z,95127.67
2018-08-28T10:44:12.861Z,95123.85
2018-08-28T10:46:39.307Z,95121.30
2018-08-28T10:49:05.721Z,95117.33
2018-08-28T10:51:32.156Z,95102.66
2018-08-28T10:53:58.525Z,95105.72
2018-08-28T10:56:24.877Z,95104.84
2018-08-28T10:58:51.351Z,95101.58
2018-08-28T11:01:17.580Z,95099.39
2018-08-28T11:03:43.917Z,95101.98
2018-08-28T11:06:10.251Z,95100.48
2018-08-28T11:08:36.618Z,95094.11
2018-08-28T11:11:03.004Z,95093.28
2018-08-28T11:13:29.356Z,95088.11
2018-08-28T11:15:55.879Z,95089.84
2018-08-28T11:18:22.199Z,95091.58
2018-08-28T11:20:48.597Z,95085.32
2018-08-28T11:23:14.959Z,95083.14
2018-08-28T11:25:41.306Z,95084.80
2018-08-28T11:28:07.655Z,95080.23
2018-08-28T11:30:34.058Z,95076.56
2018-08-28T11:33:00.425Z,95071.73
2018-08-28T11:35:26.829Z,95073.14
2018-08-28T11:37:53.225Z,95072.01
2018-08-28T11:40:19.620Z,95068.53
2018-08-28T11:42:45.955Z,95066.83
2018-08-28T11:45:12.407Z,95064.84
2018-08-28T11:47:38.890Z,95059.73
2018-08-28T11:50:05.224Z,95053.28
2018-08-28T11:52:31.644Z,95057.48
2018-08-28T11:54:58.017Z,95046.75
2018-08-28T11:57:24.405Z,95045.27
2018-08-28T11:59:50.744Z,95041.64
2018-08-28T12:02:17.091Z,95037.20
2018-08-28T12:04:43.428Z,95038.63
2018-08-28T12:07:09.835Z,95027.55
2018-08-28T12:09:36.231Z,95034.28
2018-08-28T12:12:02.597Z,95032.44
2018-08-28T12:14:29.137Z,95031.28
2018-08-28T12:16:55.476Z,95029.98
2018-08-28T12:19:21.831Z,95024.28
2018-08-28T12:21:48.161Z,95023.81
2018-08-28T12:24:14.521Z,95016.98
2018-08-28T12:26:40.927Z,95023.45
2018-08-28T12:29:07.278Z,95021.83
2018-08-28T12:31:33.771Z,95017.41
2018-08-28T12:34:00.123Z,95013.50
2018-08-28T12:36:26.569Z,95012.16
2018-08-28T12:38:53.091Z,95009.91
2018-08-28T12:41:19.481Z,95014.33
2018-08-28T12:43:45.923Z,95021.70
2018-08-28T12:46:12.352Z,95015.42
2018-08-28T12:48:38.752Z,95020.27
2018-08-28T12:51:05.194Z,95020.61
2018-08-28T12:53:31.478Z,95023.59
2018-08-28T12:55:57.976Z,95025.36
2018-08-28T12:58:24.305Z,95016.93
2018-08-28T13:00:50.681Z,95016.87
2018-08-28T13:03:17.134Z,95018.42
2018-08-28T13:05:43.545Z,95022.98
2018-08-28T13:08:10.014Z,95019.94
2018-08-28T13:10:36.407Z,95020.92
2018-08-28T13:13:02.803Z,95014.03
2018-08-28T13:15:29.332Z,95008.42
2018-08-28T13:17:55.681Z,95002.36
2018-08-28T13:20:22.067Z,95001.54
2018-08-28T13:22:48.440Z,95004.58
2018-08-28T13:25:14.852Z,95004.17
2018-08-28T13:27:41.273Z,95003.85
2018-08-28T13:30:07.666Z,94999.22
2018-08-28T13:32:34.028Z,95004.38
2018-08-28T13:35:00.382Z,95002.64
2018-08-28T13:37:26.815Z,94997.12
2018-08-28T13:39:53.193Z,94992.64
2018-08-28T13:42:19.633Z,94990.06
2018-08-28T13:44:46.087Z,94991.39
2018-08-28T13:47:12.619Z,94989.83
2018-08-28T13:49:38.925Z,94992.68
2018-08-28T13:52:05.284Z,94996.05
2018-08-28T13:54:31.690Z,94993.57
2018-08-28T13:56:58.020Z,94999.91
2018-08-28T13:59:24.411Z,94997.59
2018-08-28T14:01:50.793Z,94999.37
2018-08-28T14:04:17.296Z,95003.36
2018-08-28T14:06:43.680Z,95008.90
2018-08-28T14:09:10.073Z,95005.23
2018-08-28T14:11:36.574Z,95007.24
2018-08-28T14:14:03.064Z,95002.48
2018-08-28T14:16:29.508Z,95007.41
2018-08-28T14:18:55.898Z,94996.06
2018-08-28T14:21:22.236Z,95004.09
2018-08-28T14:23:48.650Z,94997.05
2018-08-28T14:26:15.028Z,94999.58
2018-08-28T14:28:41.535Z,95005.57
2018-08-28T14:31:07.889Z,95004.13
2018-08-28T14:33:34.280Z,95006.45
2018-08-28T14:36:00.625Z,95002.64
2018-08-28T14:38:27.050Z,95009.59
2018-08-28T14:40:53.425Z,95014.19
2018-08-28T14:43:19.781Z,95009.74
2018-08-28T14:45:46.149Z,95013.06
2018-08-28T14:48:12.508Z,95014.37
2018-08-28T14:50:38.843Z,95017.16
2018-08-28T14:53:05.256Z,95015.38
2018-08-28T14:55:31.607Z,95013.55
2018-08-28T14:57:58.019Z,95012.80
2018-08-28T15:00:24.369Z,95014.55
2018-08-28T15:02:50.756Z,95017.77
2018-08-28T15:05:17.134Z,95012.77
2018-08-28T15:07:43.497Z,95016.41
2018-08-28T15:10:09.890Z,95015.80
2018-08-28T15:12:36.308Z,95017.35
2018-08-28T15:15:02.654Z,95014.83
2018-08-28T15:17:29.056Z,95014.88
2018-08-28T15:19:55.388Z,95018.02
2018-08-28T15:22:21.984Z,95015.34
2018-08-28T15:24:48.349Z,95011.73
2018-08-28T15:27:14.828Z,95016.24
2018-08-28T15:29:41.086Z,95018.42
2018-08-28T15:32:07.451Z,95024.75
2018-08-28T15:34:33.822Z,95022.42
2018-08-28T15:37:00.252Z,95028.64
2018-08-28T15:39:26.654Z,95030.46
2018-08-28T15:41:53.044Z,95026.05
2018-08-28T15:44:19.384Z,95032.80
2018-08-28T15:46:45.784Z,95036.05
2018-08-28T15:49:12.223Z,95040.77
2018-08-28T15:51:38.740Z,95041.09
2018-08-28T15:54:05.006Z,95038.65
2018-08-28T15:56:31.371Z,95037.16
2018-08-28T15:58:57.761Z,95037.69
2018-08-28T16:01:24.067Z,95036.66
2018-08-28T16:03:50.399Z,95035.63
2018-08-28T16:06:16.764Z,95035.02
2018-08-28T16:08:43.099Z,95043.73
2018-08-28T16:11:09.460Z,95039.86
2018-08-28T16:13:35.851Z,95043.73
2018-08-28T16:16:02.187Z,95040.34
2018-08-28T16:18:28.551Z,95046.05
2018-08-28T16:20:54.889Z,95052.53
2018-08-28T16:23:21.225Z,95053.53
2018-08-28T16:25:47.581Z,95058.09
2018-08-28T16:28:13.919Z,95056.92
2018-08-28T16:30:40.265Z,95058.72
2018-08-28T16:33:06.604Z,95065.41
2018-08-28T16:35:32.991Z,95064.27
2018-08-28T16:37:59.337Z,95066.10
2018-08-28T16:40:25.688Z,95068.68
2018-08-28T16:42:52.074Z,95074.68
2018-08-28T16:45:18.393Z,95082.65
2018-08-28T16:47:44.766Z,95085.91
2018-08-28T16:50:11.155Z,95094.55
2018-08-28T16:52:37.512Z,95091.61
2018-08-28T16:55:03.842Z,95093.79
2018-08-28T16:57:30.193Z,95097.05
2018-08-28T16:59:56.534Z,95097.46
2018-08-28T17:02:22.947Z,95102.28
2018-08-28T17:04:49.277Z,95101.72
2018-08-28T17:07:15.645Z,95100.58
2018-08-28T17:09:42.032Z,95099.16
2018-08-28T17:12:08.518Z,95099.02
2018-08-28T17:14:34.885Z,95110.69
2018-08-28T17:17:01.265Z,95113.80
2018-08-28T17:19:27.676Z,95112.09
2018-08-28T17:21:54.118Z,95116.27
2018-08-28T17:24:20.458Z,95120.30
2018-08-28T17:26:46.820Z,95128.12
2018-08-28T17:29:13.168Z,95129.34
2018-08-28T17:31:39.596Z,95134.88
2018-08-28T17:34:05.969Z,95134.58
2018-08-28T17:36:32.315Z,95136.23
2018-08-28T17:38:58.667Z,95131.53
2018-08-28T17:41:25.031Z,95144.46
2018-08-28T17:43:51.428Z,95145.34
2018-08-28T17:46:17.763Z,95142.28
2018-08-28T17:48:44.178Z,95152.57
2018-08-28T17:51:10.524Z,95151.75
2018-08-28T17:53:36.862Z,95153.57
2018-08-28T17:56:03.196Z,95156.52
2018-08-28T17:58:29.552Z,95169.39
2018-08-28T18:00:55.952Z,95168.09
2018-08-28T18:03:22.316Z,95172.86
2018-08-28T18:05:48.663Z,95176.17
2018-08-28T18:08:15.001Z,95181.97
2018-08-28T18:10:41.469Z,95178.14
2018-08-28T18:13:07.912Z,95185.38
2018-08-28T18:15:34.360Z,95191.70
2018-08-28T18:18:00.689Z,95193.96
2018-08-28T18:20:27.046Z,95196.13
2018-08-28T18:22:53.410Z,95193.46
2018-08-28T18:25:19.814Z,95196.61
2018-08-28T18:27:46.176Z,95194.75
2018-08-28T18:30:12.614Z,95194.43
2018-08-28T18:32:38.993Z,95204.16
2018-08-28T18:35:05.352Z,95209.48
2018-08-28T18:37:31.732Z,95209.80
2018-08-28T18:39:58.061Z,95210.22
2018-08-28T18:42:24.451Z,95215.06
2018-08-28T18:44:50.808Z,95214.24
2018-08-28T18:47:17.207Z,95215.53
2018-08-28T18:49:43.541Z,95218.18
2018-08-28T18:52:09.881Z,95220.23
2018-08-28T18:54:36.258Z,95219.20
2018-08-28T18:57:02.584Z,95227.08
2018-08-28T18:59:28.914Z,95230.61
2018-08-28T19:01:55.252Z,95230.61
2018-08-28T19:04:21.614Z,95232.05
2018-08-28T19:06:47.944Z,95228.68
2018-08-28T19:09:14.339Z,95227.97
2018-08-28T19:11:40.664Z,95229.63
2018-08-28T19:14:06.997Z,95225.23
2018-08-28T19:16:33.325Z,95228.08
2018-08-28T19:18:59.711Z,95230.36
2018-08-28T19:21:26.061Z,95243.25
2018-08-28T19:23:52.423Z,95241.06
2018-08-28T19:26:18.769Z,95237.96
2018-08-28T19:28:45.181Z,95246.33
2018-08-28T19:31:11.516Z,95246.97
2018-08-28T19:33:37.879Z,95242.86
2018-08-28T19:36:04.205Z,95246.23
2018-08-28T19:38:30.583Z,95252.23
2018-08-28T19:40:56.910Z,95249.12
2018-08-28T19:43:23.317Z,95250.61
2018-08-28T19:45:49.700Z,95246.58
2018-08-28T19:48:16.073Z,95243.58
2018-08-28T19:50:42.411Z,95244.30
2018-08-28T19:53:08.788Z,95243.37
2018-08-28T19:55:35.116Z,95245.21
2018-08-28T19:58:01.499Z,95238.59
2018-08-28T20:00:27.830Z,95239.06
2018-08-28T20:02:54.163Z,95246.75
2018-08-28T20:05:20.488Z,95246.90
2018-08-28T20:07:46.849Z,95245.25
2018-08-28T20:10:13.183Z,95249.52
2018-08-28T20:12:39.552Z,95252.84
2018-08-28T20:15:05.881Z,95249.95
2018-08-28T20:17:32.208Z,95248.09
2018-08-28T20:19:58.582Z,95248.34
2018-08-28T20:22:24.910Z,95251.88
2018-08-28T20:24:51.229Z,95246.45
2018-08-28T20:27:17.570Z,95246.72
2018-08-28T20:29:43.932Z,95245.75
2018-08-28T20:32:10.267Z,95241.60
2018-08-28T20:34:36.669Z,95248.05
2018-08-28T20:37:03.000Z,95246.55
2018-08-28T20:39:29.360Z,95250.31
2018-08-28T20:41:55.724Z,95255.72
2018-08-28T20:44:22.050Z,95256.36
2018-08-28T20:46:48.381Z,95260.06
2018-08-28T20:49:14.712Z,95258.77
2018-08-28T20:51:41.045Z,95256.50
2018-08-28T20:54:07.371Z,95255.27
2018-08-28T20:56:33.719Z,95260.61
2018-08-28T20:59:00.576Z,95258.19
2018-08-28T21:01:26.906Z,95255.66
2018-08-28T21:03:53.274Z,95257.28
2018-08-28T21:06:19.623Z,95250.98
2018-08-28T21:08:45.973Z,95252.50
2018-08-28T21:11:12.439Z,95251.89
2018-08-28T21:13:38.808Z,95254.70
2018-08-28T21:16:05.133Z,95253.20
2018-08-28T21:18:31.499Z,95258.40
2018-08-28T21:20:57.971Z,95259.22
2018-08-28T21:23:24.336Z,95252.73
2018-08-28T21:25:50.664Z,95259.84
2018-08-28T21:28:16.996Z,95259.27
2018-08-28T21:30:43.316Z,95260.37
2018-08-28T21:33:09.862Z,95258.91
2018-08-28T21:35:36.223Z,95253.14
2018-08-28T21:38:02.615Z,95251.61
2018-08-28T21:40:28.951Z,95250.58
2018-08-28T21:42:55.284Z,95252.56
2018-08-28T21:45:21.619Z,95255.21
2018-08-28T21:47:48.023Z,95253.83
2018-08-28T21:50:14.364Z,95250.76
2018-08-28T21:52:40.764Z,95253.45
2018-08-28T21:55:07.127Z,95257.63
2018-08-28T21:57:33.516Z,95250.59
2018-08-28T21:59:59.849Z,95252.94
2018-08-28T22:02:26.188Z,95252.42
2018-08-28T22:04:52.511Z,95254.37
2018-08-28T22:07:18.862Z,95252.59
2018-08-28T22:09:45.244Z,95258.06
2018-08-28T22:12:11.568Z,95254.30
2018-08-28T22:14:37.940Z,95256.64
2018-08-28T22:17:04.276Z,95260.75
2018-08-28T22:19:30.630Z,95256.72
2018-08-28T22:21:56.958Z,95253.48
2018-08-28T22:24:23.315Z,95254.95
2018-08-28T22:26:49.655Z,95256.50
2018-08-28T22:29:15.980Z,95252.46
2018-08-28T22:31:42.303Z,95256.00
2018-08-28T22:34:08.639Z,95253.00
2018-08-28T22:36:34.971Z,95258.73
2018-08-28T22:39:01.304Z,95253.94
2018-08-28T22:41:27.663Z,95247.84
2018-08-28T22:43:54.046Z,95249.94
2018-08-28T22:46:20.605Z,95252.40
2018-08-28T22:48:46.941Z,95250.95
2018-08-28T22:51:13.299Z,95246.63
2018-08-28T22:53:39.624Z,95242.50
2018-08-28T22:56:05.959Z,95246.13
2018-08-28T22:58:32.330Z,95246.45
2018-08-28T23:00:58.672Z,95246.91
2018-08-28T23:03:25.007Z,95241.34
2018-08-28T23:05:51.319Z,95243.56
2018-08-28T23:08:17.690Z,95239.05
2018-08-28T23:10:44.018Z,95241.62
2018-08-28T23:13:10.418Z,95244.78
2018-08-28T23:15:36.748Z,95230.55
2018-08-28T23:18:03.091Z,95240.04
2018-08-28T23:20:29.410Z,95238.00
2018-08-28T23:22:55.738Z,95234.47
2018-08-28T23:25:22.169Z,95234.55
2018-08-28T23:27:48.508Z,95237.64
2018-08-28T23:30:14.839Z,95237.89
2018-08-28T23:32:41.195Z,95228.55
2018-08-28T23:35:07.531Z,95233.89
2018-08-28T23:37:33.868Z,95229.91
2018-08-28T23:40:00.228Z,95230.33
2018-08-28T23:42:26.583Z,95231.03
2018-08-28T23:44:52.948Z,95237.42
2018-08-28T23:47:19.410Z,95241.91
2018-08-28T23:49:45.736Z,95239.69
2018-08-28T23:52:12.116Z,95245.63
2018-08-28T23:54:38.448Z,95245.72
2018-08-28T23:57:04.811Z,95241.68
2018-08-28T23:59:31.131Z,95242.50
